sensor_id;sensor_type;location;lat;lon;timestamp;P1;durP1;ratioP1;P2;durP2;ratioP2
75272;SDS011;63869;52.344;16.928;2023-03-03T00:00:46;39.55;;;13.18;;
75272;SDS011;63869;52.344;16.928;2023-03-03T00:03:13;38.05;;;13.80;;
75272;SDS011;63869;52.344;16.928;2023-03-03T00:05:41;34.17;;;13.57;;
75272;SDS011;63869;52.344;16.928;2023-03-03T00:08:07;33.83;;;12.13;;
75272;SDS011;63869;52.344;16.928;2023-03-03T00:10:33;36.03;;;13.25;;
75272;SDS011;63869;52.344;16.928;2023-03-03T00:12:59;39.58;;;13.30;;
75272;SDS011;63869;52.344;16.928;2023-03-03T00:15:25;43.08;;;14.55;;
75272;SDS011;63869;52.344;16.928;2023-03-03T00:17:51;39.38;;;13.10;;
75272;SDS011;63869;52.344;16.928;2023-03-03T00:20:34;35.60;;;13.15;;
75272;SDS011;63869;52.344;16.928;2023-03-03T00:23:08;40.13;;;14.52;;
75272;SDS011;63869;52.344;16.928;2023-03-03T00:25:44;33.05;;;13.18;;
75272;SDS011;63869;52.344;16.928;2023-03-03T00:31:12;32.28;;;11.82;;
75272;SDS011;63869;52.344;16.928;2023-03-03T00:33:42;37.53;;;11.73;;
75272;SDS011;63869;52.344;16.928;2023-03-03T00:38:40;34.15;;;11.70;;
75272;SDS011;63869;52.344;16.928;2023-03-03T00:41:14;33.35;;;12.48;;
75272;SDS011;63869;52.344;16.928;2023-03-03T00:43:46;34.05;;;12.13;;
75272;SDS011;63869;52.344;16.928;2023-03-03T00:46:14;33.47;;;12.13;;
75272;SDS011;63869;52.344;16.928;2023-03-03T00:48:43;29.92;;;11.65;;
75272;SDS011;63869;52.344;16.928;2023-03-03T00:53:47;32.30;;;11.23;;
75272;SDS011;63869;52.344;16.928;2023-03-03T00:56:12;30.13;;;11.27;;
75272;SDS011;63869;52.344;16.928;2023-03-03T00:58:38;31.67;;;10.80;;
75272;SDS011;63869;52.344;16.928;2023-03-03T01:01:03;28.42;;;10.43;;
75272;SDS011;63869;52.344;16.928;2023-03-03T01:03:29;33.38;;;11.25;;
75272;SDS011;63869;52.344;16.928;2023-03-03T01:05:54;29.60;;;10.13;;
75272;SDS011;63869;52.344;16.928;2023-03-03T01:08:20;27.95;;;9.95;;
75272;SDS011;63869;52.344;16.928;2023-03-03T01:10:50;30.38;;;10.45;;
75272;SDS011;63869;52.344;16.928;2023-03-03T01:13:18;27.38;;;9.50;;
75272;SDS011;63869;52.344;16.928;2023-03-03T01:15:45;27.55;;;10.43;;
75272;SDS011;63869;52.344;16.928;2023-03-03T01:18:11;33.33;;;10.60;;
75272;SDS011;63869;52.344;16.928;2023-03-03T01:20:37;31.30;;;10.45;;
75272;SDS011;63869;52.344;16.928;2023-03-03T01:23:03;36.05;;;12.13;;
75272;SDS011;63869;52.344;16.928;2023-03-03T01:25:29;26.45;;;10.43;;
75272;SDS011;63869;52.344;16.928;2023-03-03T01:27:54;31.08;;;10.07;;
75272;SDS011;63869;52.344;16.928;2023-03-03T01:30:20;27.83;;;10.65;;
75272;SDS011;63869;52.344;16.928;2023-03-03T01:32:45;24.40;;;9.57;;
75272;SDS011;63869;52.344;16.928;2023-03-03T01:35:10;28.75;;;9.45;;
75272;SDS011;63869;52.344;16.928;2023-03-03T01:37:36;31.92;;;11.43;;
75272;SDS011;63869;52.344;16.928;2023-03-03T01:40:02;32.83;;;10.90;;
75272;SDS011;63869;52.344;16.928;2023-03-03T01:42:29;30.75;;;10.65;;
75272;SDS011;63869;52.344;16.928;2023-03-03T01:45:15;30.20;;;10.77;;
75272;SDS011;63869;52.344;16.928;2023-03-03T01:50:29;25.50;;;9.98;;
75272;SDS011;63869;52.344;16.928;2023-03-03T01:53:02;23.42;;;9.40;;
75272;SDS011;63869;52.344;16.928;2023-03-03T01:55:34;26.08;;;9.30;;
75272;SDS011;63869;52.344;16.928;2023-03-03T02:00:35;21.90;;;9.50;;
75272;SDS011;63869;52.344;16.928;2023-03-03T02:03:03;28.30;;;10.10;;
75272;SDS011;63869;52.344;16.928;2023-03-03T02:05:29;24.92;;;9.43;;
75272;SDS011;63869;52.344;16.928;2023-03-03T02:07:54;30.20;;;10.07;;
75272;SDS011;63869;52.344;16.928;2023-03-03T02:10:20;27.58;;;9.25;;
75272;SDS011;63869;52.344;16.928;2023-03-03T02:12:53;33.28;;;13.02;;
75272;SDS011;63869;52.344;16.928;2023-03-03T02:15:25;25.13;;;10.23;;
75272;SDS011;63869;52.344;16.928;2023-03-03T02:17:58;24.10;;;10.32;;
75272;SDS011;63869;52.344;16.928;2023-03-03T02:28:20;23.48;;;9.48;;
75272;SDS011;63869;52.344;16.928;2023-03-03T02:30:47;27.00;;;10.80;;
75272;SDS011;63869;52.344;16.928;2023-03-03T02:33:13;24.35;;;10.07;;
75272;SDS011;63869;52.344;16.928;2023-03-03T02:35:39;24.25;;;9.80;;
75272;SDS011;63869;52.344;16.928;2023-03-03T02:40:41;24.05;;;9.15;;
75272;SDS011;63869;52.344;16.928;2023-03-03T02:43:11;22.95;;;9.02;;
75272;SDS011;63869;52.344;16.928;2023-03-03T02:45:41;19.95;;;7.72;;
75272;SDS011;63869;52.344;16.928;2023-03-03T02:48:07;20.30;;;8.18;;
75272;SDS011;63869;52.344;16.928;2023-03-03T02:50:33;20.92;;;7.82;;
75272;SDS011;63869;52.344;16.928;2023-03-03T02:52:58;20.42;;;8.05;;
75272;SDS011;63869;52.344;16.928;2023-03-03T02:55:23;24.33;;;7.40;;
75272;SDS011;63869;52.344;16.928;2023-03-03T02:57:48;21.77;;;8.07;;
75272;SDS011;63869;52.344;16.928;2023-03-03T03:00:14;19.30;;;7.78;;
75272;SDS011;63869;52.344;16.928;2023-03-03T03:02:39;24.13;;;9.02;;
75272;SDS011;63869;52.344;16.928;2023-03-03T03:05:05;26.83;;;10.98;;
75272;SDS011;63869;52.344;16.928;2023-03-03T03:07:30;26.65;;;9.95;;
75272;SDS011;63869;52.344;16.928;2023-03-03T03:09:55;25.98;;;10.80;;
75272;SDS011;63869;52.344;16.928;2023-03-03T03:12:21;18.75;;;8.75;;
75272;SDS011;63869;52.344;16.928;2023-03-03T03:14:46;25.80;;;10.43;;
75272;SDS011;63869;52.344;16.928;2023-03-03T03:17:11;31.45;;;13.30;;
75272;SDS011;63869;52.344;16.928;2023-03-03T03:19:37;24.83;;;9.57;;
75272;SDS011;63869;52.344;16.928;2023-03-03T03:22:02;22.25;;;8.40;;
75272;SDS011;63869;52.344;16.928;2023-03-03T03:24:28;21.73;;;8.35;;
75272;SDS011;63869;52.344;16.928;2023-03-03T03:26:53;20.20;;;8.38;;
75272;SDS011;63869;52.344;16.928;2023-03-03T03:29:18;22.70;;;9.18;;
75272;SDS011;63869;52.344;16.928;2023-03-03T03:31:43;15.52;;;7.50;;
75272;SDS011;63869;52.344;16.928;2023-03-03T03:34:09;19.42;;;7.63;;
75272;SDS011;63869;52.344;16.928;2023-03-03T03:36:34;21.65;;;9.10;;
75272;SDS011;63869;52.344;16.928;2023-03-03T03:38:59;17.90;;;8.30;;
75272;SDS011;63869;52.344;16.928;2023-03-03T03:41:26;19.52;;;7.53;;
75272;SDS011;63869;52.344;16.928;2023-03-03T03:43:52;20.40;;;8.10;;
75272;SDS011;63869;52.344;16.928;2023-03-03T03:46:17;21.30;;;7.78;;
75272;SDS011;63869;52.344;16.928;2023-03-03T03:48:42;17.25;;;7.65;;
75272;SDS011;63869;52.344;16.928;2023-03-03T03:51:09;21.33;;;7.95;;
75272;SDS011;63869;52.344;16.928;2023-03-03T03:53:36;20.80;;;7.45;;
75272;SDS011;63869;52.344;16.928;2023-03-03T03:56:01;19.58;;;8.00;;
75272;SDS011;63869;52.344;16.928;2023-03-03T03:58:27;17.98;;;7.57;;
75272;SDS011;63869;52.344;16.928;2023-03-03T04:00:52;22.60;;;8.50;;
75272;SDS011;63869;52.344;16.928;2023-03-03T04:03:21;21.50;;;8.30;;
75272;SDS011;63869;52.344;16.928;2023-03-03T04:05:46;23.75;;;9.35;;
75272;SDS011;63869;52.344;16.928;2023-03-03T04:08:11;23.58;;;8.73;;
75272;SDS011;63869;52.344;16.928;2023-03-03T04:10:37;28.02;;;11.82;;
75272;SDS011;63869;52.344;16.928;2023-03-03T04:13:02;26.05;;;8.85;;
75272;SDS011;63869;52.344;16.928;2023-03-03T04:15:29;22.60;;;9.13;;
75272;SDS011;63869;52.344;16.928;2023-03-03T04:17:54;20.63;;;8.90;;
75272;SDS011;63869;52.344;16.928;2023-03-03T04:20:19;20.42;;;8.57;;
75272;SDS011;63869;52.344;16.928;2023-03-03T04:22:45;19.08;;;7.40;;
75272;SDS011;63869;52.344;16.928;2023-03-03T04:25:14;18.50;;;7.45;;
75272;SDS011;63869;52.344;16.928;2023-03-03T04:27:40;19.02;;;7.50;;
75272;SDS011;63869;52.344;16.928;2023-03-03T04:30:07;15.07;;;6.57;;
75272;SDS011;63869;52.344;16.928;2023-03-03T04:32:34;14.32;;;6.45;;
75272;SDS011;63869;52.344;16.928;2023-03-03T04:34:59;17.17;;;6.50;;
75272;SDS011;63869;52.344;16.928;2023-03-03T04:37:27;17.25;;;6.78;;
75272;SDS011;63869;52.344;16.928;2023-03-03T04:39:52;18.08;;;7.70;;
75272;SDS011;63869;52.344;16.928;2023-03-03T04:42:17;29.50;;;11.35;;
75272;SDS011;63869;52.344;16.928;2023-03-03T04:44:43;22.23;;;9.73;;
75272;SDS011;63869;52.344;16.928;2023-03-03T04:47:09;20.60;;;8.82;;
75272;SDS011;63869;52.344;16.928;2023-03-03T04:49:35;30.42;;;13.02;;
75272;SDS011;63869;52.344;16.928;2023-03-03T04:52:01;17.30;;;8.30;;
75272;SDS011;63869;52.344;16.928;2023-03-03T04:54:26;31.35;;;13.50;;
75272;SDS011;63869;52.344;16.928;2023-03-03T04:56:51;24.02;;;9.68;;
75272;SDS011;63869;52.344;16.928;2023-03-03T04:59:17;21.83;;;9.32;;
75272;SDS011;63869;52.344;16.928;2023-03-03T05:01:42;21.85;;;8.45;;
75272;SDS011;63869;52.344;16.928;2023-03-03T05:04:07;19.58;;;8.77;;
75272;SDS011;63869;52.344;16.928;2023-03-03T05:06:33;20.73;;;9.20;;
75272;SDS011;63869;52.344;16.928;2023-03-03T05:08:58;22.00;;;8.50;;
75272;SDS011;63869;52.344;16.928;2023-03-03T05:11:24;15.93;;;7.20;;
75272;SDS011;63869;52.344;16.928;2023-03-03T05:13:49;19.40;;;7.72;;
75272;SDS011;63869;52.344;16.928;2023-03-03T05:16:15;20.45;;;8.23;;
75272;SDS011;63869;52.344;16.928;2023-03-03T05:18:40;15.23;;;6.75;;
75272;SDS011;63869;52.344;16.928;2023-03-03T05:21:06;16.58;;;7.68;;
75272;SDS011;63869;52.344;16.928;2023-03-03T05:23:31;22.65;;;8.20;;
75272;SDS011;63869;52.344;16.928;2023-03-03T05:25:56;20.60;;;7.82;;
75272;SDS011;63869;52.344;16.928;2023-03-03T05:28:22;19.88;;;7.70;;
75272;SDS011;63869;52.344;16.928;2023-03-03T05:30:47;19.00;;;6.55;;
75272;SDS011;63869;52.344;16.928;2023-03-03T05:33:13;19.17;;;7.53;;
75272;SDS011;63869;52.344;16.928;2023-03-03T05:35:40;15.25;;;6.90;;
75272;SDS011;63869;52.344;16.928;2023-03-03T05:38:05;16.35;;;7.03;;
75272;SDS011;63869;52.344;16.928;2023-03-03T05:40:31;20.75;;;8.27;;
75272;SDS011;63869;52.344;16.928;2023-03-03T05:42:56;14.75;;;6.40;;
75272;SDS011;63869;52.344;16.928;2023-03-03T05:45:22;17.92;;;6.65;;
75272;SDS011;63869;52.344;16.928;2023-03-03T05:47:48;16.88;;;6.65;;
75272;SDS011;63869;52.344;16.928;2023-03-03T05:50:14;17.48;;;7.15;;
75272;SDS011;63869;52.344;16.928;2023-03-03T05:52:40;22.05;;;7.85;;
75272;SDS011;63869;52.344;16.928;2023-03-03T05:55:05;18.80;;;8.50;;
75272;SDS011;63869;52.344;16.928;2023-03-03T05:57:31;19.58;;;7.72;;
75272;SDS011;63869;52.344;16.928;2023-03-03T05:59:56;16.38;;;7.57;;
75272;SDS011;63869;52.344;16.928;2023-03-03T06:02:22;24.33;;;7.50;;
75272;SDS011;63869;52.344;16.928;2023-03-03T06:04:47;20.00;;;9.32;;
75272;SDS011;63869;52.344;16.928;2023-03-03T06:07:12;29.58;;;9.63;;
75272;SDS011;63869;52.344;16.928;2023-03-03T06:09:38;13.98;;;5.40;;
75272;SDS011;63869;52.344;16.928;2023-03-03T06:12:03;11.05;;;5.20;;
75272;SDS011;63869;52.344;16.928;2023-03-03T06:14:29;14.95;;;5.00;;
75272;SDS011;63869;52.344;16.928;2023-03-03T06:16:55;16.20;;;5.55;;
75272;SDS011;63869;52.344;16.928;2023-03-03T06:19:21;10.55;;;4.25;;
75272;SDS011;63869;52.344;16.928;2023-03-03T06:21:47;11.88;;;4.50;;
75272;SDS011;63869;52.344;16.928;2023-03-03T06:24:12;10.48;;;5.13;;
75272;SDS011;63869;52.344;16.928;2023-03-03T06:26:39;10.93;;;4.70;;
75272;SDS011;63869;52.344;16.928;2023-03-03T06:29:04;14.38;;;5.90;;
75272;SDS011;63869;52.344;16.928;2023-03-03T06:31:29;17.05;;;5.18;;
75272;SDS011;63869;52.344;16.928;2023-03-03T06:33:55;19.90;;;6.32;;
75272;SDS011;63869;52.344;16.928;2023-03-03T06:36:20;18.08;;;6.55;;
75272;SDS011;63869;52.344;16.928;2023-03-03T06:38:46;11.27;;;4.70;;
75272;SDS011;63869;52.344;16.928;2023-03-03T06:41:11;9.88;;;4.00;;
75272;SDS011;63869;52.344;16.928;2023-03-03T06:43:37;11.80;;;3.72;;
75272;SDS011;63869;52.344;16.928;2023-03-03T06:46:05;17.60;;;5.63;;
75272;SDS011;63869;52.344;16.928;2023-03-03T06:48:31;12.55;;;5.88;;
75272;SDS011;63869;52.344;16.928;2023-03-03T06:50:58;16.92;;;7.03;;
75272;SDS011;63869;52.344;16.928;2023-03-03T06:53:25;11.80;;;5.85;;
75272;SDS011;63869;52.344;16.928;2023-03-03T06:55:51;14.50;;;5.75;;
75272;SDS011;63869;52.344;16.928;2023-03-03T06:58:20;13.20;;;5.78;;
75272;SDS011;63869;52.344;16.928;2023-03-03T07:00:52;12.32;;;5.47;;
75272;SDS011;63869;52.344;16.928;2023-03-03T07:03:23;12.90;;;5.63;;
75272;SDS011;63869;52.344;16.928;2023-03-03T07:05:52;11.55;;;5.28;;
75272;SDS011;63869;52.344;16.928;2023-03-03T07:10:44;15.13;;;6.10;;
75272;SDS011;63869;52.344;16.928;2023-03-03T07:13:21;13.70;;;5.80;;
75272;SDS011;63869;52.344;16.928;2023-03-03T07:15:48;15.20;;;6.57;;
75272;SDS011;63869;52.344;16.928;2023-03-03T07:20:57;11.63;;;5.13;;
75272;SDS011;63869;52.344;16.928;2023-03-03T07:23:25;11.18;;;4.60;;
75272;SDS011;63869;52.344;16.928;2023-03-03T07:25:53;11.93;;;5.18;;
75272;SDS011;63869;52.344;16.928;2023-03-03T07:28:26;18.20;;;7.47;;
75272;SDS011;63869;52.344;16.928;2023-03-03T07:30:53;12.15;;;5.35;;
75272;SDS011;63869;52.344;16.928;2023-03-03T07:33:25;25.30;;;10.05;;
75272;SDS011;63869;52.344;16.928;2023-03-03T07:35:56;17.52;;;6.82;;
75272;SDS011;63869;52.344;16.928;2023-03-03T07:40:58;22.92;;;8.40;;
75272;SDS011;63869;52.344;16.928;2023-03-03T07:45:52;19.00;;;6.35;;
75272;SDS011;63869;52.344;16.928;2023-03-03T07:48:26;13.90;;;6.13;;
75272;SDS011;63869;52.344;16.928;2023-03-03T07:50:56;16.75;;;7.65;;
75272;SDS011;63869;52.344;16.928;2023-03-03T07:53:28;18.98;;;7.95;;
75272;SDS011;63869;52.344;16.928;2023-03-03T07:55:58;24.60;;;11.05;;
75272;SDS011;63869;52.344;16.928;2023-03-03T07:58:58;31.25;;;11.50;;
75272;SDS011;63869;52.344;16.928;2023-03-03T08:03:56;18.10;;;6.93;;
75272;SDS011;63869;52.344;16.928;2023-03-03T08:11:33;18.17;;;7.82;;
75272;SDS011;63869;52.344;16.928;2023-03-03T08:13:59;15.63;;;6.20;;
75272;SDS011;63869;52.344;16.928;2023-03-03T08:16:36;23.88;;;9.07;;
75272;SDS011;63869;52.344;16.928;2023-03-03T08:19:02;23.90;;;8.27;;
75272;SDS011;63869;52.344;16.928;2023-03-03T08:21:30;17.83;;;6.72;;
75272;SDS011;63869;52.344;16.928;2023-03-03T08:23:58;22.40;;;10.05;;
75272;SDS011;63869;52.344;16.928;2023-03-03T08:26:24;22.52;;;8.98;;
75272;SDS011;63869;52.344;16.928;2023-03-03T08:28:50;17.23;;;7.28;;
75272;SDS011;63869;52.344;16.928;2023-03-03T08:31:16;20.63;;;8.82;;
75272;SDS011;63869;52.344;16.928;2023-03-03T08:33:42;15.52;;;7.15;;
75272;SDS011;63869;52.344;16.928;2023-03-03T08:36:08;18.35;;;8.00;;
75272;SDS011;63869;52.344;16.928;2023-03-03T08:38:34;20.67;;;7.30;;
75272;SDS011;63869;52.344;16.928;2023-03-03T08:41:00;16.95;;;6.63;;
75272;SDS011;63869;52.344;16.928;2023-03-03T08:43:25;15.75;;;8.02;;
75272;SDS011;63869;52.344;16.928;2023-03-03T08:45:52;17.17;;;7.45;;
75272;SDS011;63869;52.344;16.928;2023-03-03T08:48:19;16.17;;;6.88;;
75272;SDS011;63869;52.344;16.928;2023-03-03T08:50:44;23.35;;;9.50;;
75272;SDS011;63869;52.344;16.928;2023-03-03T23:04:26;15.88;;;6.63;;
75272;SDS011;63869;52.344;16.928;2023-03-03T23:06:51;17.55;;;7.85;;
75272;SDS011;63869;52.344;16.928;2023-03-03T23:09:21;20.98;;;8.60;;
75272;SDS011;63869;52.344;16.928;2023-03-03T23:11:46;16.98;;;7.25;;
75272;SDS011;63869;52.344;16.928;2023-03-03T23:14:11;18.27;;;7.10;;
75272;SDS011;63869;52.344;16.928;2023-03-03T23:16:38;22.10;;;9.00;;
75272;SDS011;63869;52.344;16.928;2023-03-03T23:19:04;15.25;;;7.78;;
75272;SDS011;63869;52.344;16.928;2023-03-03T23:21:29;17.33;;;7.45;;
75272;SDS011;63869;52.344;16.928;2023-03-03T23:23:54;20.65;;;7.85;;
75272;SDS011;63869;52.344;16.928;2023-03-03T23:26:19;23.10;;;8.32;;
75272;SDS011;63869;52.344;16.928;2023-03-03T23:28:45;20.10;;;8.48;;
75272;SDS011;63869;52.344;16.928;2023-03-03T23:31:10;20.58;;;8.35;;
75272;SDS011;63869;52.344;16.928;2023-03-03T23:33:35;23.45;;;8.90;;
75272;SDS011;63869;52.344;16.928;2023-03-03T23:36:01;16.25;;;7.82;;
75272;SDS011;63869;52.344;16.928;2023-03-03T23:38:26;19.95;;;8.68;;
75272;SDS011;63869;52.344;16.928;2023-03-03T23:40:52;22.95;;;8.88;;
75272;SDS011;63869;52.344;16.928;2023-03-03T23:43:17;19.60;;;8.32;;
75272;SDS011;63869;52.344;16.928;2023-03-03T23:45:42;19.00;;;8.15;;
75272;SDS011;63869;52.344;16.928;2023-03-03T23:48:08;18.05;;;8.63;;
75272;SDS011;63869;52.344;16.928;2023-03-03T23:50:33;20.08;;;8.35;;
75272;SDS011;63869;52.344;16.928;2023-03-03T23:53:01;19.73;;;8.48;;
75272;SDS011;63869;52.344;16.928;2023-03-03T23:55:27;18.95;;;8.00;;
75272;SDS011;63869;52.344;16.928;2023-03-03T23:57:52;17.17;;;8.05;;
